createdAt,value
2023-05-24T00:02:15.277Z,93948.25
2023-05-24T00:04:42.464Z,93942.81
2023-05-24T00:07:09.220Z,93933.19
2023-05-24T00:09:36.070Z,93938.19
2023-05-24T00:12:03.090Z,93937.81
2023-05-24T00:14:30.332Z,93942.00
2023-05-24T00:16:57.064Z,93949.03
2023-05-24T00:19:24.170Z,93942.06
2023-05-24T00:21:51.380Z,93942.03
2023-05-24T00:24:18.324Z,93948.97
2023-05-24T00:26:45.539Z,93934.34
2023-05-24T00:29:12.309Z,93939.78
2023-05-24T00:31:39.061Z,93938.94
2023-05-24T00:34:06.491Z,93946.34
2023-05-24T00:36:33.310Z,93936.09
2023-05-24T00:39:00.257Z,93934.22
2023-05-24T00:41:27.007Z,93930.13
2023-05-24T00:43:53.770Z,93930.91
2023-05-24T00:46:32.256Z,93933.59
2023-05-24T00:49:00.816Z,93931.28
2023-05-24T00:51:28.736Z,93930.88
2023-05-24T00:53:56.284Z,93939.78
2023-05-24T00:56:23.535Z,93930.94
2023-05-24T00:58:54.859Z,93936.31
2023-05-24T01:01:25.916Z,93932.78
2023-05-24T01:03:57.506Z,93938.25
2023-05-24T01:06:27.260Z,93933.56
2023-05-24T01:09:28.965Z,93934.31
2023-05-24T01:12:13.876Z,93933.16
2023-05-24T01:15:06.672Z,93946.66
2023-05-24T01:17:42.890Z,93938.97
2023-05-24T01:20:13.434Z,93948.63
2023-05-24T01:22:52.137Z,93942.44
2023-05-24T01:25:43.139Z,93950.56
2023-05-24T01:28:11.865Z,93941.28
2023-05-24T01:30:42.766Z,93938.97
2023-05-24T01:33:10.055Z,93940.94
2023-05-24T01:35:40.468Z,93939.78
2023-05-24T01:38:07.736Z,93947.50
2023-05-24T01:40:34.982Z,93942.03
2023-05-24T01:43:22.298Z,93945.88
2023-05-24T01:45:55.826Z,93953.94
2023-05-24T01:48:22.476Z,93953.97
2023-05-24T01:50:53.645Z,93950.53
2023-05-24T01:53:23.116Z,93940.53
2023-05-24T01:55:54.160Z,93944.38
2023-05-24T01:58:25.167Z,93944.00
2023-05-24T02:00:52.291Z,93940.94
2023-05-24T02:03:20.116Z,93936.69
2023-05-24T02:05:47.037Z,93935.50
2023-05-24T02:08:13.907Z,93947.31
2023-05-24T02:10:41.242Z,93939.50
2023-05-24T02:13:09.428Z,93935.00
2023-05-24T02:15:36.519Z,93925.03
2023-05-24T02:18:04.230Z,93933.44
2023-05-24T02:20:31.540Z,93937.97
2023-05-24T02:22:58.487Z,93930.84
2023-05-24T02:25:25.663Z,93927.44
2023-05-24T02:27:52.526Z,93920.47
2023-05-24T02:30:19.315Z,93922.81
2023-05-24T02:32:46.870Z,93920.50
2023-05-24T02:35:13.802Z,93915.88
2023-05-24T02:37:41.112Z,93917.00
2023-05-24T02:40:09.417Z,93909.69
2023-05-24T02:42:36.370Z,93914.31
2023-05-24T02:45:04.805Z,93922.03
2023-05-24T02:47:31.517Z,93920.09
2023-05-24T02:49:58.220Z,93936.22
2023-05-24T02:52:24.888Z,93930.34
2023-05-24T02:54:51.546Z,93933.09
2023-05-24T02:57:18.408Z,93934.28
2023-05-24T02:59:45.029Z,93930.06
2023-05-24T03:02:13.864Z,93928.94
2023-05-24T03:04:40.595Z,93938.09
2023-05-24T03:07:07.345Z,93947.56
2023-05-24T03:09:33.940Z,93948.03
2023-05-24T03:12:00.742Z,93960.84
2023-05-24T03:14:27.508Z,93949.59
2023-05-24T03:16:54.187Z,93955.06
2023-05-24T03:19:20.873Z,93943.97
2023-05-24T03:21:47.520Z,93941.66
2023-05-24T03:24:14.400Z,93949.72
2023-05-24T03:26:41.252Z,93950.50
2023-05-24T03:29:07.893Z,93954.75
2023-05-24T03:31:34.635Z,93949.72
2023-05-24T03:34:01.407Z,93950.53
2023-05-24T03:36:29.282Z,93956.31
2023-05-24T03:38:58.500Z,93959.41
2023-05-24T03:41:25.454Z,93960.13
2023-05-24T03:43:52.806Z,93959.41
2023-05-24T03:46:19.594Z,93955.19
2023-05-24T03:48:46.535Z,93954.03
2023-05-24T03:51:13.213Z,93962.91
2023-05-24T03:53:40.014Z,93950.94
2023-05-24T03:56:06.925Z,93952.06
2023-05-24T03:58:33.728Z,93956.13
2023-05-24T04:01:01.244Z,93960.22
2023-05-24T04:03:28.657Z,93966.03
2023-05-24T04:05:55.391Z,93970.03
2023-05-24T04:08:22.319Z,93973.09
2023-05-24T04:10:49.047Z,93967.41
2023-05-24T04:13:15.780Z,93967.50
2023-05-24T04:15:43.561Z,93967.09
2023-05-24T04:18:10.421Z,93963.66
2023-05-24T04:20:37.410Z,93963.25
2023-05-24T04:23:04.182Z,93970.22
2023-05-24T04:25:30.930Z,93959.81
2023-05-24T04:27:57.638Z,93961.31
2023-05-24T04:30:24.404Z,93957.84
2023-05-24T04:32:51.454Z,93965.13
2023-05-24T04:35:18.442Z,93968.28
2023-05-24T04:37:46.730Z,93975.53
2023-05-24T04:40:13.603Z,93981.25
2023-05-24T04:42:43.177Z,93982.47
2023-05-24T04:45:10.309Z,93990.16
2023-05-24T04:47:37.015Z,93989.03
2023-05-24T04:50:04.254Z,93989.09
2023-05-24T04:52:31.092Z,93988.28
2023-05-24T04:54:58.250Z,93986.38
2023-05-24T04:57:25.111Z,93987.38
2023-05-24T04:59:51.817Z,93989.06
2023-05-24T05:02:18.803Z,93987.16
2023-05-24T05:04:45.452Z,93999.88
2023-05-24T05:07:12.098Z,93994.09
2023-05-24T05:09:38.760Z,93995.19
2023-05-24T05:12:05.674Z,93994.47
2023-05-24T05:14:32.420Z,93999.09
2023-05-24T05:16:59.189Z,93992.94
2023-05-24T05:19:25.816Z,93998.31
2023-05-24T05:21:52.448Z,94000.66
2023-05-24T05:24:19.180Z,93994.78
2023-05-24T05:26:45.798Z,93999.00
2023-05-24T05:29:12.460Z,94004.06
2023-05-24T05:31:39.753Z,94004.81
2023-05-24T05:34:09.958Z,94008.34
2023-05-24T05:36:41.088Z,94014.75
2023-05-24T05:39:11.522Z,94002.97
2023-05-24T05:41:46.492Z,94009.06
2023-05-24T05:44:13.685Z,94002.25
2023-05-24T05:46:41.622Z,93998.09
2023-05-24T05:49:08.452Z,94003.69
2023-05-24T05:51:35.204Z,94002.84
2023-05-24T05:54:01.888Z,94004.38
2023-05-24T05:56:28.785Z,94013.50
2023-05-24T05:58:55.739Z,94005.38
2023-05-24T06:01:23.693Z,94013.75
2023-05-24T06:03:51.598Z,94019.59
2023-05-24T06:06:18.433Z,94019.63
2023-05-24T06:08:45.094Z,94027.16
2023-05-24T06:11:11.798Z,94024.38
2023-05-24T06:13:38.459Z,94024.75
2023-05-24T06:16:05.345Z,94023.88
2023-05-24T06:18:32.740Z,94029.91
2023-05-24T06:20:59.416Z,94027.28
2023-05-24T06:23:26.142Z,94017.50
2023-05-24T06:25:52.808Z,94026.53
2023-05-24T06:28:19.417Z,94022.81
2023-05-24T06:30:47.591Z,94016.78
2023-05-24T06:33:14.359Z,94018.38
2023-05-24T06:35:41.143Z,94028.66
2023-05-24T06:38:07.911Z,94029.03
2023-05-24T06:40:34.625Z,94019.50
2023-05-24T06:43:01.959Z,94015.38
2023-05-24T06:45:28.660Z,94011.59
2023-05-24T06:47:55.428Z,94013.56
2023-05-24T06:50:25.398Z,94011.09
2023-05-24T06:52:53.671Z,94017.34
2023-05-24T06:55:20.767Z,94022.56
2023-05-24T06:57:47.444Z,94013.97
2023-05-24T07:00:14.915Z,94015.84
2023-05-24T07:02:42.097Z,94014.13
2023-05-24T07:05:12.575Z,94014.19
2023-05-24T07:07:40.479Z,94010.31
2023-05-24T07:10:08.353Z,94007.81
2023-05-24T07:12:35.202Z,94011.63
2023-05-24T07:15:01.930Z,94013.09
2023-05-24T07:17:28.637Z,94014.28
2023-05-24T07:19:55.335Z,94019.34
2023-05-24T07:22:22.821Z,94022.06
2023-05-24T07:24:49.504Z,94012.69
2023-05-24T07:27:16.262Z,94016.94
2023-05-24T07:29:42.998Z,94019.41
2023-05-24T07:32:09.913Z,94023.63
2023-05-24T07:34:36.639Z,94024.31
2023-05-24T07:37:03.941Z,94026.63
2023-05-24T07:39:30.782Z,94020.63
2023-05-24T07:41:57.499Z,94024.53
2023-05-24T07:44:24.352Z,94022.97
2023-05-24T07:46:51.309Z,94028.22
2023-05-24T07:49:18.133Z,94021.88
2023-05-24T07:51:45.525Z,94023.31
2023-05-24T07:54:12.186Z,94014.84
2023-05-24T07:56:38.816Z,94010.28
2023-05-24T07:59:05.844Z,94020.03
2023-05-24T08:01:35.101Z,94024.25
2023-05-24T08:04:05.861Z,94022.44
2023-05-24T08:06:35.481Z,94012.31
2023-05-24T08:09:05.538Z,94020.25
2023-05-24T08:11:32.360Z,94010.47
2023-05-24T08:13:58.998Z,94012.06
2023-05-24T08:16:26.136Z,94013.59
2023-05-24T08:18:54.962Z,94005.19
2023-05-24T08:21:22.671Z,94004.28
2023-05-24T08:23:49.385Z,94014.22
2023-05-24T08:26:19.160Z,94002.84
2023-05-24T08:28:45.849Z,94000.63
2023-05-24T08:31:12.577Z,94013.66
2023-05-24T08:33:39.638Z,94013.44
2023-05-24T08:36:07.161Z,94014.75
2023-05-24T08:38:33.882Z,94003.94
2023-05-24T08:41:00.606Z,94000.44
2023-05-24T08:43:31.999Z,94009.59
2023-05-24T08:46:02.422Z,94000.53
2023-05-24T08:48:29.576Z,94008.22
2023-05-24T08:50:57.938Z,94012.66
2023-05-24T08:53:24.931Z,94003.56
2023-05-24T08:55:55.910Z,93999.53
2023-05-24T08:58:22.745Z,94000.41
2023-05-24T09:00:49.477Z,94003.50
2023-05-24T09:03:17.726Z,94006.72
2023-05-24T09:05:45.424Z,94008.00
2023-05-24T09:08:18.282Z,94001.81
2023-05-24T09:13:19.814Z,94012.34
2023-05-24T09:15:46.939Z,94002.53
2023-05-24T09:18:13.701Z,94011.59
2023-05-24T09:20:40.549Z,93998.03
2023-05-24T09:23:08.793Z,93998.88
2023-05-24T09:25:35.913Z,93995.69
2023-05-24T09:28:07.801Z,93999.75
2023-05-24T09:30:35.993Z,94002.81
2023-05-24T09:33:04.039Z,93985.75
2023-05-24T09:35:31.762Z,93998.00
2023-05-24T09:38:03.320Z,93993.09
2023-05-24T09:40:30.894Z,93997.38
2023-05-24T09:43:09.774Z,93994.75
2023-05-24T09:45:46.803Z,93994.31
2023-05-24T09:48:15.333Z,94004.31
2023-05-24T09:50:42.595Z,93989.41
2023-05-24T09:53:09.537Z,93994.16
2023-05-24T09:55:37.407Z,93989.97
2023-05-24T09:58:08.623Z,93980.75
2023-05-24T10:00:41.685Z,93986.13
2023-05-24T10:03:15.225Z,93988.38
2023-05-24T10:05:44.776Z,93985.13
2023-05-24T10:08:12.598Z,93977.59
2023-05-24T10:10:39.398Z,93977.06
2023-05-24T10:13:06.089Z,93983.06
2023-05-24T10:15:32.779Z,93976.72
2023-05-24T10:18:09.827Z,93966.91
2023-05-24T10:20:41.443Z,93975.22
2023-05-24T10:23:10.405Z,93977.03
2023-05-24T10:25:41.956Z,93974.66
2023-05-24T10:28:12.740Z,93974.13
2023-05-24T10:31:03.550Z,93971.03
2023-05-24T10:33:32.521Z,93973.13
2023-05-24T10:35:59.648Z,93964.94
2023-05-24T10:38:26.434Z,93966.50
2023-05-24T10:40:53.341Z,93960.91
2023-05-24T10:43:21.931Z,93954.00
2023-05-24T10:45:50.761Z,93947.41
2023-05-24T10:48:17.737Z,93948.66
2023-05-24T10:50:44.804Z,93945.91
2023-05-24T10:53:19.355Z,93944.81
2023-05-24T10:55:59.958Z,93943.19
2023-05-24T10:58:58.325Z,93945.38
2023-05-24T11:01:34.980Z,93937.22
2023-05-24T11:04:15.399Z,93937.28
2023-05-24T11:06:45.831Z,93932.69
2023-05-24T11:09:12.505Z,93936.84
2023-05-24T11:11:39.561Z,93936.28
2023-05-24T11:14:06.419Z,93930.97
2023-05-24T11:16:37.441Z,93929.78
2023-05-24T11:19:19.419Z,93920.00
2023-05-24T11:21:52.349Z,93927.69
2023-05-24T11:24:20.618Z,93926.56
2023-05-24T11:26:47.410Z,93932.53
2023-05-24T11:29:22.792Z,93922.50
2023-05-24T11:31:55.097Z,93927.38
2023-05-24T11:34:22.099Z,93919.25
2023-05-24T11:36:49.422Z,93923.28
2023-05-24T11:39:16.727Z,93918.88
2023-05-24T11:41:43.860Z,93917.00
2023-05-24T11:44:12.163Z,93914.47
2023-05-24T11:46:39.506Z,93897.41
2023-05-24T11:49:07.091Z,93915.16
2023-05-24T11:51:34.873Z,93914.25
2023-05-24T11:54:01.956Z,93904.81
2023-05-24T11:56:33.493Z,93906.28
2023-05-24T11:59:16.127Z,93904.16
2023-05-24T12:01:43.822Z,93901.88
2023-05-24T12:04:12.007Z,93895.19
2023-05-24T12:06:40.867Z,93893.84
2023-05-24T12:09:10.365Z,93892.81
2023-05-24T12:11:41.126Z,93897.63
2023-05-24T12:14:12.674Z,93906.03
2023-05-24T12:16:39.724Z,93898.34
2023-05-24T12:19:11.846Z,93900.88
2023-05-24T12:21:48.161Z,93874.94
2023-05-24T12:24:16.633Z,93878.13
2023-05-24T12:26:48.240Z,93878.03
2023-05-24T12:29:15.870Z,93880.78
2023-05-24T12:31:47.622Z,93873.69
2023-05-24T12:34:16.869Z,93876.84
2023-05-24T12:36:43.836Z,93875.81
2023-05-24T12:39:24.273Z,93863.63
2023-05-24T12:41:55.296Z,93867.97
2023-05-24T12:44:26.292Z,93869.84
2023-05-24T12:46:57.442Z,93872.50
2023-05-24T12:49:25.244Z,93875.69
2023-05-24T12:51:55.800Z,93866.41
2023-05-24T12:54:25.031Z,93862.47
2023-05-24T12:56:55.590Z,93857.00
2023-05-24T12:59:23.207Z,93847.69
2023-05-24T13:01:53.132Z,93855.13
2023-05-24T13:04:22.732Z,93853.88
2023-05-24T13:06:49.762Z,93851.53
2023-05-24T13:09:19.062Z,93846.69
2023-05-24T13:11:46.916Z,93843.03
2023-05-24T13:14:15.620Z,93835.88
2023-05-24T13:16:42.615Z,93840.44
2023-05-24T13:19:10.448Z,93834.94
2023-05-24T13:21:37.310Z,93836.47
2023-05-24T13:24:05.564Z,93837.59
2023-05-24T13:26:37.390Z,93838.25
2023-05-24T13:31:37.641Z,93837.00
2023-05-24T13:34:04.964Z,93828.66
2023-05-24T13:36:31.792Z,93826.66
2023-05-24T13:41:46.547Z,93825.53
2023-05-24T13:44:14.787Z,93830.88
2023-05-24T13:46:42.164Z,93840.25
2023-05-24T13:47:40.611Z,93823.25
2023-05-24T13:49:09.812Z,93851.22
2023-05-24T13:51:37.959Z,93855.94
2023-05-24T13:54:07.385Z,93855.44
2023-05-24T13:56:35.050Z,93866.56
2023-05-24T13:59:03.658Z,93871.03
2023-05-24T14:01:31.277Z,93880.63
2023-05-24T14:03:58.396Z,93890.41
2023-05-24T14:06:25.056Z,93894.13
2023-05-24T14:08:52.299Z,93882.25
2023-05-24T14:11:19.742Z,93893.63
2023-05-24T14:16:16.611Z,93911.72
2023-05-24T14:18:43.360Z,93911.53
2023-05-24T14:21:09.970Z,93902.06
2023-05-24T14:23:36.681Z,93897.63
2023-05-24T14:26:03.565Z,93901.59
2023-05-24T14:28:30.256Z,93902.31
2023-05-24T14:30:56.900Z,93895.88
2023-05-24T14:33:23.675Z,93899.72
2023-05-24T14:35:51.851Z,93890.66
2023-05-24T14:38:18.688Z,93886.50
2023-05-24T14:40:47.731Z,93885.69
2023-05-24T14:43:14.447Z,93878.63
2023-05-24T14:45:42.273Z,93878.03
2023-05-24T14:48:13.522Z,93872.63
2023-05-24T14:50:41.162Z,93864.31
2023-05-24T14:53:14.238Z,93858.00
2023-05-24T14:55:43.079Z,93857.66
2023-05-24T14:58:12.021Z,93849.84
2023-05-24T15:00:39.766Z,93858.81
2023-05-24T15:03:08.124Z,93850.41
2023-05-24T15:05:36.188Z,93847.91
2023-05-24T15:08:02.981Z,93861.41
2023-05-24T15:10:29.662Z,93869.28
2023-05-24T15:12:56.352Z,93872.44
2023-05-24T15:15:23.512Z,93862.22
2023-05-24T15:17:50.286Z,93859.34
2023-05-24T15:20:17.167Z,93871.88
2023-05-24T15:22:43.976Z,93867.13
2023-05-24T15:25:11.519Z,93865.59
2023-05-24T15:27:38.332Z,93862.59
2023-05-24T15:30:05.718Z,93864.78
2023-05-24T15:32:32.384Z,93864.28
2023-05-24T15:35:00.564Z,93860.94
2023-05-24T15:37:27.444Z,93858.34
2023-05-24T15:39:54.718Z,93868.56
2023-05-24T15:42:23.575Z,93867.09
2023-05-24T15:44:50.749Z,93875.84
2023-05-24T15:47:18.662Z,93875.53
2023-05-24T15:49:47.582Z,93866.41
2023-05-24T15:52:14.306Z,93873.63
2023-05-24T15:54:40.938Z,93866.41
2023-05-24T15:57:07.715Z,93875.91
2023-05-24T15:59:36.870Z,93869.03
2023-05-24T16:02:03.619Z,93874.88
2023-05-24T16:04:30.291Z,93868.13
2023-05-24T16:06:56.946Z,93862.28
2023-05-24T16:09:23.677Z,93869.41
2023-05-24T16:11:50.483Z,93876.75
2023-05-24T16:14:17.431Z,93881.63
2023-05-24T16:16:44.417Z,93880.63
2023-05-24T16:19:11.605Z,93882.00
2023-05-24T16:21:38.462Z,93888.75
2023-05-24T16:24:05.931Z,93886.38
2023-05-24T16:26:32.748Z,93882.53
2023-05-24T16:28:59.629Z,93890.41
2023-05-24T16:31:26.349Z,93898.94
2023-05-24T16:33:53.220Z,93891.19
2023-05-24T16:36:21.203Z,93908.88
2023-05-24T16:38:49.706Z,93894.91
2023-05-24T16:41:16.437Z,93907.41
2023-05-24T16:43:43.067Z,93907.53
2023-05-24T16:46:11.037Z,93904.88
2023-05-24T16:48:37.825Z,93896.06
2023-05-24T16:51:04.568Z,93900.69
2023-05-24T16:53:31.357Z,93894.25
2023-05-24T16:55:58.170Z,93895.69
2023-05-24T16:58:28.186Z,93890.53
2023-05-24T17:00:55.112Z,93896.00
2023-05-24T17:03:27.900Z,93900.25
2023-05-24T17:05:56.809Z,93901.16
2023-05-24T17:08:26.003Z,93899.72
2023-05-24T17:10:56.226Z,93907.03
2023-05-24T17:13:23.846Z,93905.72
2023-05-24T17:15:52.277Z,93907.25
2023-05-24T17:18:28.005Z,93912.22
2023-05-24T17:21:00.010Z,93911.75
2023-05-24T17:23:27.579Z,93909.66
2023-05-24T17:25:55.666Z,93912.91
2023-05-24T17:28:29.396Z,93911.38
2023-05-24T17:31:00.511Z,93920.13
2023-05-24T17:33:28.886Z,93916.72
2023-05-24T17:35:56.716Z,93921.41
2023-05-24T17:38:28.566Z,93929.53
2023-05-24T17:40:59.630Z,93927.84
2023-05-24T17:43:32.716Z,93928.25
2023-05-24T17:46:04.114Z,93925.13
2023-05-24T17:48:31.990Z,93925.78
2023-05-24T17:51:03.982Z,93939.06
2023-05-24T17:53:32.468Z,93941.31
2023-05-24T17:55:59.967Z,93933.63
2023-05-24T17:58:27.108Z,93941.88
2023-05-24T18:00:53.784Z,93948.16
2023-05-24T18:03:20.595Z,93953.69
2023-05-24T18:05:47.352Z,93947.91
2023-05-24T18:08:13.988Z,93949.34
2023-05-24T18:10:40.782Z,93950.03
2023-05-24T18:13:11.285Z,93952.59
2023-05-24T18:15:37.924Z,93958.88
2023-05-24T18:18:04.847Z,93968.31
2023-05-24T18:20:32.401Z,93972.00
2023-05-24T18:22:59.062Z,93972.31
2023-05-24T18:25:25.905Z,93976.38
2023-05-24T18:27:52.559Z,93981.47
2023-05-24T18:30:19.359Z,93995.16
2023-05-24T18:33:02.571Z,94000.22
2023-05-24T18:35:32.319Z,94002.31
2023-05-24T18:37:59.271Z,94004.16
2023-05-24T18:40:26.168Z,94008.59
2023-05-24T18:42:52.902Z,94007.13
2023-05-24T18:45:19.813Z,94016.66
2023-05-24T18:47:46.714Z,94021.16
2023-05-24T18:50:13.415Z,94017.31
2023-05-24T18:52:40.134Z,94021.25
2023-05-24T18:55:10.769Z,94020.41
2023-05-24T18:57:38.217Z,94020.81
2023-05-24T19:00:07.191Z,94029.75
2023-05-24T19:02:40.510Z,94028.66
2023-05-24T19:05:08.437Z,94031.59
2023-05-24T19:07:36.056Z,94032.34
2023-05-24T19:10:03.385Z,94039.06
2023-05-24T19:12:30.392Z,94044.00
2023-05-24T19:14:57.167Z,94042.59
2023-05-24T19:17:25.001Z,94046.31
2023-05-24T19:19:52.765Z,94045.75
2023-05-24T19:22:19.583Z,94045.97
2023-05-24T19:24:46.431Z,94046.75
2023-05-24T19:27:13.634Z,94045.13
2023-05-24T19:29:40.343Z,94052.84
2023-05-24T19:32:08.365Z,94057.97
2023-05-24T19:34:37.256Z,94055.94
2023-05-24T19:37:04.297Z,94059.81
2023-05-24T19:39:30.953Z,94059.03
2023-05-24T19:41:57.587Z,94057.41
2023-05-24T19:44:24.237Z,94057.34
2023-05-24T19:46:50.949Z,94051.50
2023-05-24T19:49:17.551Z,94047.03
2023-05-24T19:51:44.250Z,94050.09
2023-05-24T19:54:11.193Z,94051.38
2023-05-24T19:56:37.864Z,94056.81
2023-05-24T19:59:04.556Z,94056.19
2023-05-24T20:01:31.223Z,94053.22
2023-05-24T20:03:58.576Z,94060.13
2023-05-24T20:06:26.323Z,94060.19
2023-05-24T20:08:53.410Z,94049.31
2023-05-24T20:11:20.337Z,94052.94
2023-05-24T20:13:47.044Z,94055.06
2023-05-24T20:16:13.896Z,94059.84
2023-05-24T20:18:40.884Z,94055.38
2023-05-24T20:21:07.459Z,94056.97
2023-05-24T20:23:34.216Z,94057.31
2023-05-24T20:26:00.995Z,94055.72
2023-05-24T20:28:31.282Z,94048.31
2023-05-24T20:30:58.811Z,94055.94
2023-05-24T20:33:25.611Z,94058.38
2023-05-24T20:35:54.067Z,94055.31
2023-05-24T20:38:20.763Z,94053.94
2023-05-24T20:40:47.436Z,94049.41
2023-05-24T20:43:14.174Z,94047.75
2023-05-24T20:45:40.943Z,94065.59
2023-05-24T20:48:07.656Z,94055.97
2023-05-24T20:50:34.319Z,94065.53
2023-05-24T20:53:00.990Z,94060.75
2023-05-24T20:55:27.683Z,94070.50
2023-05-24T20:57:54.376Z,94076.22
2023-05-24T21:00:21.220Z,94076.59
2023-05-24T21:02:48.150Z,94082.91
2023-05-24T21:05:14.979Z,94083.50
2023-05-24T21:07:41.690Z,94084.97
2023-05-24T21:10:09.438Z,94087.38
2023-05-24T21:12:36.117Z,94078.72
2023-05-24T21:15:02.831Z,94079.91
2023-05-24T21:17:29.506Z,94080.66
2023-05-24T21:19:56.193Z,94085.78
2023-05-24T21:22:23.001Z,94090.34
2023-05-24T21:24:49.795Z,94084.66
2023-05-24T21:27:17.868Z,94092.28
2023-05-24T21:29:44.574Z,94085.13
2023-05-24T21:32:11.273Z,94089.63
2023-05-24T21:34:37.974Z,94094.16
2023-05-24T21:37:05.193Z,94089.03
2023-05-24T21:39:32.658Z,94088.91
2023-05-24T21:41:59.351Z,94098.22
2023-05-24T21:44:26.017Z,94094.16
2023-05-24T21:46:52.787Z,94095.75
2023-05-24T21:49:21.444Z,94091.31
2023-05-24T21:51:48.146Z,94088.25
2023-05-24T21:54:15.132Z,94092.09
2023-05-24T21:56:41.767Z,94089.75
2023-05-24T21:59:08.439Z,94087.50
2023-05-24T22:01:35.172Z,94085.13
2023-05-24T22:04:01.926Z,94095.31
2023-05-24T22:06:28.764Z,94090.88
2023-05-24T22:08:57.886Z,94084.97
2023-05-24T22:11:24.596Z,94091.53
2023-05-24T22:13:51.485Z,94088.19
2023-05-24T22:16:18.258Z,94081.63
2023-05-24T22:18:44.980Z,94087.44
2023-05-24T22:21:14.473Z,94100.66
2023-05-24T22:23:41.396Z,94094.81
2023-05-24T22:26:08.104Z,94096.97
2023-05-24T22:28:51.608Z,94101.03
2023-05-24T22:31:19.925Z,94095.47
2023-05-24T22:33:49.933Z,94103.41
2023-05-24T22:36:16.943Z,94114.09
2023-05-24T22:38:44.128Z,94108.81
2023-05-24T22:41:11.056Z,94110.59
2023-05-24T22:43:37.998Z,94112.19
2023-05-24T22:46:05.881Z,94115.91
2023-05-24T22:48:34.773Z,94116.44
2023-05-24T22:51:01.602Z,94110.09
2023-05-24T22:53:28.786Z,94112.13
2023-05-24T22:55:55.655Z,94110.44
2023-05-24T22:58:23.963Z,94111.66
2023-05-24T23:00:51.462Z,94107.78
2023-05-24T23:03:18.371Z,94106.16
2023-05-24T23:05:45.808Z,94096.34
2023-05-24T23:08:17.615Z,94096.34
2023-05-24T23:10:46.282Z,94098.28
2023-05-24T23:13:17.756Z,94089.03
2023-05-24T23:15:46.904Z,94100.34
2023-05-24T23:18:16.397Z,94088.53
2023-05-24T23:20:44.613Z,94085.66
2023-05-24T23:23:11.393Z,94078.66
2023-05-24T23:25:38.167Z,94087.84
2023-05-24T23:28:05.070Z,94082.44
2023-05-24T23:30:31.859Z,94077.84
2023-05-24T23:32:59.555Z,94074.53
2023-05-24T23:35:26.283Z,94074.28
2023-05-24T23:37:53.885Z,94074.31
2023-05-24T23:40:20.860Z,94085.94
2023-05-24T23:42:49.177Z,94076.88
2023-05-24T23:45:16.395Z,94090.81
2023-05-24T23:47:43.194Z,94085.31
2023-05-24T23:50:10.790Z,94084.91
2023-05-24T23:52:37.466Z,94084.56
2023-05-24T23:55:04.500Z,94085.38
2023-05-24T23:57:31.153Z,94083.81
2023-05-24T23:59:57.962Z,94085.66
